sensor_id;sensor_type;location;lat;lon;timestamp;P1;durP1;ratioP1;P2;durP2;ratioP2
51943;SDS011;37969;53.132;6.370;2023-06-26T00:00:41;10.68;;;9.15;;
51943;SDS011;37969;53.132;6.370;2023-06-26T00:03:07;11.02;;;9.60;;
51943;SDS011;37969;53.132;6.370;2023-06-26T00:05:34;10.07;;;9.07;;
51943;SDS011;37969;53.132;6.370;2023-06-26T00:08:00;10.45;;;9.45;;
51943;SDS011;37969;53.132;6.370;2023-06-26T00:10:26;10.40;;;9.00;;
51943;SDS011;37969;53.132;6.370;2023-06-26T00:12:53;11.80;;;9.55;;
51943;SDS011;37969;53.132;6.370;2023-06-26T00:15:19;12.23;;;8.68;;
51943;SDS011;37969;53.132;6.370;2023-06-26T00:17:45;11.43;;;9.60;;
51943;SDS011;37969;53.132;6.370;2023-06-26T00:20:12;12.50;;;9.93;;
51943;SDS011;37969;53.132;6.370;2023-06-26T00:22:41;10.32;;;9.43;;
51943;SDS011;37969;53.132;6.370;2023-06-26T00:25:08;10.98;;;9.65;;
51943;SDS011;37969;53.132;6.370;2023-06-26T00:27:34;11.65;;;9.73;;
51943;SDS011;37969;53.132;6.370;2023-06-26T00:30:00;10.65;;;9.52;;
51943;SDS011;37969;53.132;6.370;2023-06-26T00:32:26;11.90;;;9.50;;
51943;SDS011;37969;53.132;6.370;2023-06-26T00:34:52;11.65;;;9.68;;
51943;SDS011;37969;53.132;6.370;2023-06-26T00:37:18;10.70;;;9.60;;
51943;SDS011;37969;53.132;6.370;2023-06-26T00:39:46;10.90;;;9.90;;
51943;SDS011;37969;53.132;6.370;2023-06-26T00:42:12;10.55;;;9.40;;
51943;SDS011;37969;53.132;6.370;2023-06-26T00:44:38;11.85;;;9.98;;
51943;SDS011;37969;53.132;6.370;2023-06-26T00:47:04;11.27;;;10.10;;
51943;SDS011;37969;53.132;6.370;2023-06-26T00:49:30;11.70;;;9.68;;
51943;SDS011;37969;53.132;6.370;2023-06-26T00:51:57;11.07;;;10.05;;
51943;SDS011;37969;53.132;6.370;2023-06-26T00:54:23;12.30;;;11.00;;
51943;SDS011;37969;53.132;6.370;2023-06-26T00:56:49;11.93;;;10.75;;
51943;SDS011;37969;53.132;6.370;2023-06-26T00:59:15;11.52;;;9.98;;
51943;SDS011;37969;53.132;6.370;2023-06-26T01:01:42;12.88;;;11.07;;
51943;SDS011;37969;53.132;6.370;2023-06-26T01:04:08;13.73;;;10.38;;
51943;SDS011;37969;53.132;6.370;2023-06-26T01:06:42;11.50;;;10.05;;
51943;SDS011;37969;53.132;6.370;2023-06-26T01:09:14;11.90;;;10.80;;
51943;SDS011;37969;53.132;6.370;2023-06-26T01:11:40;12.27;;;10.30;;
51943;SDS011;37969;53.132;6.370;2023-06-26T01:14:07;18.85;;;10.27;;
51943;SDS011;37969;53.132;6.370;2023-06-26T01:16:33;12.85;;;11.07;;
51943;SDS011;37969;53.132;6.370;2023-06-26T01:19:00;12.95;;;10.65;;
51943;SDS011;37969;53.132;6.370;2023-06-26T01:21:27;11.82;;;10.52;;
51943;SDS011;37969;53.132;6.370;2023-06-26T01:24:02;12.00;;;10.93;;
51943;SDS011;37969;53.132;6.370;2023-06-26T01:26:31;11.50;;;10.40;;
51943;SDS011;37969;53.132;6.370;2023-06-26T01:29:00;11.43;;;10.43;;
51943;SDS011;37969;53.132;6.370;2023-06-26T01:31:27;11.43;;;10.15;;
51943;SDS011;37969;53.132;6.370;2023-06-26T01:33:55;15.98;;;11.10;;
51943;SDS011;37969;53.132;6.370;2023-06-26T01:36:22;12.32;;;11.10;;
51943;SDS011;37969;53.132;6.370;2023-06-26T01:38:48;11.98;;;10.88;;
51943;SDS011;37969;53.132;6.370;2023-06-26T01:41:16;12.45;;;11.15;;
51943;SDS011;37969;53.132;6.370;2023-06-26T01:43:58;13.07;;;10.80;;
51943;SDS011;37969;53.132;6.370;2023-06-26T01:49:15;12.63;;;11.32;;
51943;SDS011;37969;53.132;6.370;2023-06-26T01:51:53;13.95;;;12.25;;
51943;SDS011;37969;53.132;6.370;2023-06-26T01:54:21;13.85;;;12.45;;
51943;SDS011;37969;53.132;6.370;2023-06-26T01:56:49;12.75;;;11.55;;
51943;SDS011;37969;53.132;6.370;2023-06-26T01:59:18;12.38;;;11.20;;
51943;SDS011;37969;53.132;6.370;2023-06-26T02:01:46;12.40;;;11.10;;
51943;SDS011;37969;53.132;6.370;2023-06-26T02:04:12;11.55;;;10.35;;
51943;SDS011;37969;53.132;6.370;2023-06-26T02:06:39;13.80;;;12.38;;
51943;SDS011;37969;53.132;6.370;2023-06-26T02:09:05;14.07;;;12.63;;
51943;SDS011;37969;53.132;6.370;2023-06-26T02:11:31;14.65;;;12.68;;
51943;SDS011;37969;53.132;6.370;2023-06-26T02:13:57;14.88;;;13.02;;
51943;SDS011;37969;53.132;6.370;2023-06-26T02:16:23;14.93;;;13.48;;
51943;SDS011;37969;53.132;6.370;2023-06-26T02:18:49;17.83;;;14.32;;
51943;SDS011;37969;53.132;6.370;2023-06-26T02:21:15;14.57;;;13.20;;
51943;SDS011;37969;53.132;6.370;2023-06-26T02:23:42;15.35;;;13.85;;
51943;SDS011;37969;53.132;6.370;2023-06-26T02:26:08;15.05;;;13.50;;
51943;SDS011;37969;53.132;6.370;2023-06-26T02:28:34;15.13;;;13.55;;
51943;SDS011;37969;53.132;6.370;2023-06-26T02:31:00;15.52;;;14.02;;
51943;SDS011;37969;53.132;6.370;2023-06-26T02:33:26;16.58;;;13.57;;
51943;SDS011;37969;53.132;6.370;2023-06-26T02:35:52;16.85;;;14.43;;
51943;SDS011;37969;53.132;6.370;2023-06-26T02:38:18;16.02;;;14.32;;
51943;SDS011;37969;53.132;6.370;2023-06-26T02:40:45;17.10;;;15.25;;
51943;SDS011;37969;53.132;6.370;2023-06-26T02:43:11;17.00;;;15.30;;
51943;SDS011;37969;53.132;6.370;2023-06-26T02:45:37;16.40;;;14.70;;
51943;SDS011;37969;53.132;6.370;2023-06-26T02:48:03;16.52;;;14.93;;
51943;SDS011;37969;53.132;6.370;2023-06-26T02:50:29;16.63;;;14.90;;
51943;SDS011;37969;53.132;6.370;2023-06-26T02:52:55;17.65;;;15.75;;
51943;SDS011;37969;53.132;6.370;2023-06-26T02:55:22;18.27;;;16.23;;
51943;SDS011;37969;53.132;6.370;2023-06-26T02:57:48;17.05;;;15.40;;
51943;SDS011;37969;53.132;6.370;2023-06-26T03:00:14;17.23;;;15.45;;
51943;SDS011;37969;53.132;6.370;2023-06-26T03:02:40;17.42;;;15.73;;
51943;SDS011;37969;53.132;6.370;2023-06-26T03:05:07;18.67;;;14.90;;
51943;SDS011;37969;53.132;6.370;2023-06-26T03:07:33;17.02;;;15.27;;
51943;SDS011;37969;53.132;6.370;2023-06-26T03:09:59;19.35;;;15.50;;
51943;SDS011;37969;53.132;6.370;2023-06-26T03:12:25;15.40;;;13.82;;
51943;SDS011;37969;53.132;6.370;2023-06-26T03:14:52;17.05;;;14.82;;
51943;SDS011;37969;53.132;6.370;2023-06-26T03:17:18;17.10;;;15.30;;
51943;SDS011;37969;53.132;6.370;2023-06-26T03:19:44;16.38;;;14.55;;
51943;SDS011;37969;53.132;6.370;2023-06-26T03:22:10;17.27;;;15.40;;
51943;SDS011;37969;53.132;6.370;2023-06-26T03:24:36;16.92;;;15.30;;
51943;SDS011;37969;53.132;6.370;2023-06-26T03:27:02;17.00;;;15.20;;
51943;SDS011;37969;53.132;6.370;2023-06-26T03:29:28;16.50;;;14.77;;
51943;SDS011;37969;53.132;6.370;2023-06-26T03:31:55;19.17;;;14.82;;
51943;SDS011;37969;53.132;6.370;2023-06-26T03:34:21;16.55;;;14.73;;
51943;SDS011;37969;53.132;6.370;2023-06-26T03:36:47;15.40;;;13.93;;
51943;SDS011;37969;53.132;6.370;2023-06-26T03:39:14;16.15;;;14.45;;
51943;SDS011;37969;53.132;6.370;2023-06-26T03:41:40;15.95;;;14.45;;
51943;SDS011;37969;53.132;6.370;2023-06-26T03:44:06;19.13;;;14.65;;
51943;SDS011;37969;53.132;6.370;2023-06-26T03:46:32;16.27;;;14.60;;
51943;SDS011;37969;53.132;6.370;2023-06-26T03:48:58;16.33;;;14.60;;
51943;SDS011;37969;53.132;6.370;2023-06-26T03:51:24;16.77;;;14.82;;
51943;SDS011;37969;53.132;6.370;2023-06-26T03:53:50;17.20;;;15.13;;
51943;SDS011;37969;53.132;6.370;2023-06-26T03:56:17;16.92;;;15.25;;
51943;SDS011;37969;53.132;6.370;2023-06-26T03:58:43;18.92;;;13.88;;
51943;SDS011;37969;53.132;6.370;2023-06-26T04:01:09;16.08;;;13.85;;
51943;SDS011;37969;53.132;6.370;2023-06-26T04:03:35;19.27;;;14.50;;
51943;SDS011;37969;53.132;6.370;2023-06-26T04:06:02;19.02;;;14.15;;
51943;SDS011;37969;53.132;6.370;2023-06-26T04:08:28;17.00;;;14.27;;
51943;SDS011;37969;53.132;6.370;2023-06-26T04:10:55;15.60;;;14.00;;
51943;SDS011;37969;53.132;6.370;2023-06-26T04:13:23;16.73;;;15.02;;
51943;SDS011;37969;53.132;6.370;2023-06-26T04:15:50;16.88;;;14.38;;
51943;SDS011;37969;53.132;6.370;2023-06-26T04:18:16;14.77;;;13.38;;
51943;SDS011;37969;53.132;6.370;2023-06-26T04:21:03;15.65;;;13.63;;
51943;SDS011;37969;53.132;6.370;2023-06-26T04:23:30;15.15;;;13.00;;
51943;SDS011;37969;53.132;6.370;2023-06-26T04:25:56;13.77;;;12.30;;
51943;SDS011;37969;53.132;6.370;2023-06-26T04:28:23;14.65;;;12.07;;
51943;SDS011;37969;53.132;6.370;2023-06-26T04:30:49;14.98;;;11.75;;
51943;SDS011;37969;53.132;6.370;2023-06-26T04:33:16;17.90;;;11.90;;
51943;SDS011;37969;53.132;6.370;2023-06-26T04:35:42;15.13;;;11.38;;
51943;SDS011;37969;53.132;6.370;2023-06-26T04:38:10;16.50;;;11.13;;
51943;SDS011;37969;53.132;6.370;2023-06-26T04:40:36;22.15;;;10.55;;
51943;SDS011;37969;53.132;6.370;2023-06-26T04:43:02;14.98;;;10.23;;
51943;SDS011;37969;53.132;6.370;2023-06-26T04:45:28;17.48;;;10.55;;
51943;SDS011;37969;53.132;6.370;2023-06-26T04:47:55;15.57;;;10.60;;
51943;SDS011;37969;53.132;6.370;2023-06-26T04:50:22;21.52;;;11.70;;
51943;SDS011;37969;53.132;6.370;2023-06-26T04:52:48;22.55;;;12.02;;
51943;SDS011;37969;53.132;6.370;2023-06-26T04:55:14;19.27;;;12.65;;
51943;SDS011;37969;53.132;6.370;2023-06-26T04:57:40;17.48;;;12.88;;
51943;SDS011;37969;53.132;6.370;2023-06-26T05:00:07;25.48;;;13.73;;
51943;SDS011;37969;53.132;6.370;2023-06-26T05:02:36;23.83;;;14.05;;
51943;SDS011;37969;53.132;6.370;2023-06-26T05:05:02;27.10;;;14.27;;
51943;SDS011;37969;53.132;6.370;2023-06-26T05:07:29;24.38;;;14.77;;
51943;SDS011;37969;53.132;6.370;2023-06-26T05:09:55;25.00;;;13.75;;
51943;SDS011;37969;53.132;6.370;2023-06-26T05:12:21;23.25;;;14.85;;
51943;SDS011;37969;53.132;6.370;2023-06-26T05:14:47;25.25;;;13.65;;
51943;SDS011;37969;53.132;6.370;2023-06-26T05:17:14;25.65;;;13.15;;
51943;SDS011;37969;53.132;6.370;2023-06-26T05:19:40;23.35;;;12.98;;
51943;SDS011;37969;53.132;6.370;2023-06-26T05:22:06;23.48;;;11.77;;
51943;SDS011;37969;53.132;6.370;2023-06-26T05:24:34;26.17;;;11.85;;
51943;SDS011;37969;53.132;6.370;2023-06-26T05:27:01;18.75;;;10.82;;
51943;SDS011;37969;53.132;6.370;2023-06-26T05:29:28;22.83;;;10.27;;
51943;SDS011;37969;53.132;6.370;2023-06-26T05:31:55;23.38;;;10.30;;
51943;SDS011;37969;53.132;6.370;2023-06-26T05:34:23;24.10;;;9.60;;
51943;SDS011;37969;53.132;6.370;2023-06-26T05:36:50;18.73;;;9.90;;
51943;SDS011;37969;53.132;6.370;2023-06-26T05:39:17;23.05;;;9.57;;
51943;SDS011;37969;53.132;6.370;2023-06-26T05:41:44;17.50;;;7.93;;
51943;SDS011;37969;53.132;6.370;2023-06-26T05:44:10;17.65;;;7.10;;
51943;SDS011;37969;53.132;6.370;2023-06-26T05:46:36;15.88;;;7.55;;
51943;SDS011;37969;53.132;6.370;2023-06-26T05:49:02;18.35;;;6.82;;
51943;SDS011;37969;53.132;6.370;2023-06-26T05:51:29;16.80;;;7.38;;
51943;SDS011;37969;53.132;6.370;2023-06-26T05:53:55;17.70;;;6.95;;
51943;SDS011;37969;53.132;6.370;2023-06-26T05:56:21;18.15;;;6.38;;
51943;SDS011;37969;53.132;6.370;2023-06-26T05:58:48;24.52;;;6.72;;
51943;SDS011;37969;53.132;6.370;2023-06-26T06:01:14;23.70;;;6.50;;
51943;SDS011;37969;53.132;6.370;2023-06-26T06:03:40;18.08;;;6.10;;
51943;SDS011;37969;53.132;6.370;2023-06-26T06:06:06;20.55;;;5.90;;
51943;SDS011;37969;53.132;6.370;2023-06-26T06:08:32;25.90;;;6.55;;
51943;SDS011;37969;53.132;6.370;2023-06-26T06:10:59;17.52;;;6.20;;
51943;SDS011;37969;53.132;6.370;2023-06-26T06:13:26;20.40;;;5.03;;
51943;SDS011;37969;53.132;6.370;2023-06-26T06:15:53;13.30;;;4.65;;
51943;SDS011;37969;53.132;6.370;2023-06-26T06:18:20;13.57;;;4.72;;
51943;SDS011;37969;53.132;6.370;2023-06-26T06:20:46;16.73;;;4.88;;
51943;SDS011;37969;53.132;6.370;2023-06-26T06:23:12;17.38;;;5.20;;
51943;SDS011;37969;53.132;6.370;2023-06-26T06:25:39;18.13;;;4.90;;
51943;SDS011;37969;53.132;6.370;2023-06-26T06:28:05;18.42;;;4.88;;
51943;SDS011;37969;53.132;6.370;2023-06-26T06:30:31;18.17;;;4.65;;
51943;SDS011;37969;53.132;6.370;2023-06-26T06:32:57;15.52;;;4.43;;
51943;SDS011;37969;53.132;6.370;2023-06-26T06:35:23;13.88;;;4.45;;
51943;SDS011;37969;53.132;6.370;2023-06-26T06:37:50;8.77;;;3.80;;
51943;SDS011;37969;53.132;6.370;2023-06-26T06:40:16;12.05;;;3.63;;
51943;SDS011;37969;53.132;6.370;2023-06-26T06:42:42;9.93;;;3.25;;
51943;SDS011;37969;53.132;6.370;2023-06-26T06:45:09;13.13;;;4.00;;
51943;SDS011;37969;53.132;6.370;2023-06-26T06:47:35;17.42;;;3.95;;
51943;SDS011;37969;53.132;6.370;2023-06-26T06:50:02;11.90;;;3.55;;
51943;SDS011;37969;53.132;6.370;2023-06-26T06:52:39;8.98;;;3.85;;
51943;SDS011;37969;53.132;6.370;2023-06-26T06:55:06;10.20;;;3.55;;
51943;SDS011;37969;53.132;6.370;2023-06-26T06:57:34;10.05;;;3.70;;
51943;SDS011;37969;53.132;6.370;2023-06-26T07:00:06;13.07;;;4.07;;
51943;SDS011;37969;53.132;6.370;2023-06-26T07:02:34;8.98;;;3.10;;
51943;SDS011;37969;53.132;6.370;2023-06-26T07:05:01;8.32;;;2.95;;
51943;SDS011;37969;53.132;6.370;2023-06-26T07:07:29;10.00;;;2.92;;
51943;SDS011;37969;53.132;6.370;2023-06-26T07:09:58;9.73;;;3.17;;
51943;SDS011;37969;53.132;6.370;2023-06-26T07:12:24;8.23;;;2.72;;
51943;SDS011;37969;53.132;6.370;2023-06-26T07:14:50;7.50;;;3.17;;
51943;SDS011;37969;53.132;6.370;2023-06-26T07:17:16;9.23;;;3.10;;
51943;SDS011;37969;53.132;6.370;2023-06-26T07:19:42;11.02;;;3.17;;
51943;SDS011;37969;53.132;6.370;2023-06-26T07:22:09;10.77;;;3.20;;
51943;SDS011;37969;53.132;6.370;2023-06-26T07:24:36;7.40;;;2.63;;
51943;SDS011;37969;53.132;6.370;2023-06-26T07:27:02;11.70;;;3.03;;
51943;SDS011;37969;53.132;6.370;2023-06-26T07:29:28;5.05;;;2.35;;
51943;SDS011;37969;53.132;6.370;2023-06-26T07:31:55;10.07;;;2.70;;
51943;SDS011;37969;53.132;6.370;2023-06-26T07:34:21;7.80;;;2.88;;
51943;SDS011;37969;53.132;6.370;2023-06-26T07:36:47;4.47;;;2.20;;
51943;SDS011;37969;53.132;6.370;2023-06-26T07:39:13;7.20;;;2.60;;
51943;SDS011;37969;53.132;6.370;2023-06-26T07:41:39;8.13;;;2.70;;
51943;SDS011;37969;53.132;6.370;2023-06-26T07:44:06;9.85;;;2.17;;
51943;SDS011;37969;53.132;6.370;2023-06-26T07:46:32;9.57;;;2.67;;
51943;SDS011;37969;53.132;6.370;2023-06-26T07:48:58;7.78;;;2.17;;
51943;SDS011;37969;53.132;6.370;2023-06-26T07:51:24;7.45;;;2.40;;
51943;SDS011;37969;53.132;6.370;2023-06-26T07:53:50;6.00;;;2.35;;
51943;SDS011;37969;53.132;6.370;2023-06-26T07:56:17;7.93;;;2.33;;
51943;SDS011;37969;53.132;6.370;2023-06-26T07:58:44;6.07;;;2.17;;
51943;SDS011;37969;53.132;6.370;2023-06-26T08:01:10;5.00;;;2.47;;
51943;SDS011;37969;53.132;6.370;2023-06-26T08:03:36;5.53;;;2.35;;
51943;SDS011;37969;53.132;6.370;2023-06-26T08:06:02;7.88;;;2.25;;
51943;SDS011;37969;53.132;6.370;2023-06-26T08:08:28;9.00;;;2.78;;
51943;SDS011;37969;53.132;6.370;2023-06-26T08:10:55;8.45;;;2.22;;
51943;SDS011;37969;53.132;6.370;2023-06-26T08:13:21;7.78;;;1.98;;
51943;SDS011;37969;53.132;6.370;2023-06-26T08:15:47;5.78;;;2.25;;
51943;SDS011;37969;53.132;6.370;2023-06-26T08:18:13;3.03;;;1.67;;
51943;SDS011;37969;53.132;6.370;2023-06-26T08:20:39;3.90;;;2.15;;
51943;SDS011;37969;53.132;6.370;2023-06-26T08:23:05;7.15;;;2.83;;
51943;SDS011;37969;53.132;6.370;2023-06-26T08:25:32;6.38;;;2.05;;
51943;SDS011;37969;53.132;6.370;2023-06-26T08:27:58;5.38;;;1.92;;
51943;SDS011;37969;53.132;6.370;2023-06-26T08:30:24;5.22;;;2.20;;
51943;SDS011;37969;53.132;6.370;2023-06-26T08:32:54;6.10;;;2.28;;
51943;SDS011;37969;53.132;6.370;2023-06-26T08:35:20;7.53;;;2.78;;
51943;SDS011;37969;53.132;6.370;2023-06-26T08:37:46;5.13;;;2.50;;
51943;SDS011;37969;53.132;6.370;2023-06-26T08:40:13;5.90;;;2.40;;
51943;SDS011;37969;53.132;6.370;2023-06-26T08:42:42;4.75;;;2.35;;
51943;SDS011;37969;53.132;6.370;2023-06-26T08:45:08;8.25;;;2.88;;
51943;SDS011;37969;53.132;6.370;2023-06-26T08:47:35;6.38;;;2.53;;
51943;SDS011;37969;53.132;6.370;2023-06-26T08:50:07;7.00;;;2.70;;
51943;SDS011;37969;53.132;6.370;2023-06-26T08:52:36;8.85;;;2.90;;
51943;SDS011;37969;53.132;6.370;2023-06-26T08:55:02;8.82;;;2.97;;
51943;SDS011;37969;53.132;6.370;2023-06-26T08:57:32;4.22;;;2.20;;
51943;SDS011;37969;53.132;6.370;2023-06-26T08:59:59;3.60;;;2.25;;
51943;SDS011;37969;53.132;6.370;2023-06-26T09:02:25;3.33;;;2.15;;
51943;SDS011;37969;53.132;6.370;2023-06-26T09:04:51;4.38;;;2.22;;
51943;SDS011;37969;53.132;6.370;2023-06-26T09:07:17;3.58;;;1.92;;
51943;SDS011;37969;53.132;6.370;2023-06-26T09:09:43;7.03;;;2.38;;
51943;SDS011;37969;53.132;6.370;2023-06-26T09:12:10;5.32;;;2.45;;
51943;SDS011;37969;53.132;6.370;2023-06-26T09:14:37;4.88;;;2.30;;
51943;SDS011;37969;53.132;6.370;2023-06-26T09:17:03;4.10;;;1.95;;
51943;SDS011;37969;53.132;6.370;2023-06-26T09:19:29;6.95;;;2.33;;
51943;SDS011;37969;53.132;6.370;2023-06-26T09:21:55;6.50;;;2.40;;
51943;SDS011;37969;53.132;6.370;2023-06-26T09:24:22;4.47;;;2.20;;
51943;SDS011;37969;53.132;6.370;2023-06-26T09:26:48;12.13;;;2.45;;
51943;SDS011;37969;53.132;6.370;2023-06-26T09:29:15;7.50;;;2.88;;
51943;SDS011;37969;53.132;6.370;2023-06-26T09:31:41;8.68;;;3.00;;
51943;SDS011;37969;53.132;6.370;2023-06-26T09:34:08;7.85;;;3.28;;
51943;SDS011;37969;53.132;6.370;2023-06-26T09:36:34;6.82;;;3.30;;
51943;SDS011;37969;53.132;6.370;2023-06-26T09:39:03;5.10;;;3.42;;
51943;SDS011;37969;53.132;6.370;2023-06-26T09:41:30;7.45;;;3.15;;
51943;SDS011;37969;53.132;6.370;2023-06-26T09:43:57;8.25;;;3.60;;
51943;SDS011;37969;53.132;6.370;2023-06-26T09:46:27;6.88;;;3.00;;
51943;SDS011;37969;53.132;6.370;2023-06-26T09:48:58;6.75;;;3.38;;
51943;SDS011;37969;53.132;6.370;2023-06-26T09:51:24;8.65;;;3.33;;
51943;SDS011;37969;53.132;6.370;2023-06-26T09:53:50;7.03;;;3.10;;
51943;SDS011;37969;53.132;6.370;2023-06-26T09:56:17;6.75;;;3.20;;
51943;SDS011;37969;53.132;6.370;2023-06-26T09:58:44;4.60;;;2.90;;
51943;SDS011;37969;53.132;6.370;2023-06-26T10:01:10;7.38;;;3.00;;
51943;SDS011;37969;53.132;6.370;2023-06-26T10:03:36;7.07;;;3.00;;
51943;SDS011;37969;53.132;6.370;2023-06-26T10:06:02;7.15;;;3.17;;
51943;SDS011;37969;53.132;6.370;2023-06-26T10:08:29;6.93;;;3.13;;
51943;SDS011;37969;53.132;6.370;2023-06-26T10:10:56;6.95;;;2.95;;
51943;SDS011;37969;53.132;6.370;2023-06-26T10:13:25;8.10;;;2.78;;
51943;SDS011;37969;53.132;6.370;2023-06-26T10:15:53;6.63;;;2.65;;
51943;SDS011;37969;53.132;6.370;2023-06-26T10:18:21;10.45;;;2.60;;
51943;SDS011;37969;53.132;6.370;2023-06-26T10:20:48;6.40;;;3.17;;
51943;SDS011;37969;53.132;6.370;2023-06-26T10:23:14;4.25;;;3.22;;
51943;SDS011;37969;53.132;6.370;2023-06-26T10:25:42;9.60;;;2.45;;
51943;SDS011;37969;53.132;6.370;2023-06-26T10:28:10;5.95;;;2.85;;
51943;SDS011;37969;53.132;6.370;2023-06-26T10:30:38;7.30;;;2.83;;
51943;SDS011;37969;53.132;6.370;2023-06-26T10:33:05;5.85;;;2.50;;
51943;SDS011;37969;53.132;6.370;2023-06-26T10:35:32;6.88;;;3.00;;
51943;SDS011;37969;53.132;6.370;2023-06-26T10:38:00;5.82;;;2.30;;
51943;SDS011;37969;53.132;6.370;2023-06-26T10:40:28;6.38;;;3.35;;
51943;SDS011;37969;53.132;6.370;2023-06-26T10:43:05;7.53;;;2.80;;
51943;SDS011;37969;53.132;6.370;2023-06-26T10:45:33;4.72;;;2.05;;
51943;SDS011;37969;53.132;6.370;2023-06-26T10:48:00;5.68;;;2.65;;
51943;SDS011;37969;53.132;6.370;2023-06-26T10:50:27;3.70;;;2.00;;
51943;SDS011;37969;53.132;6.370;2023-06-26T10:58:02;7.32;;;2.40;;
51943;SDS011;37969;53.132;6.370;2023-06-26T11:00:29;11.77;;;2.47;;
51943;SDS011;37969;53.132;6.370;2023-06-26T11:02:56;4.50;;;1.77;;
51943;SDS011;37969;53.132;6.370;2023-06-26T11:05:23;9.00;;;2.50;;
51943;SDS011;37969;53.132;6.370;2023-06-26T11:08:02;8.25;;;2.00;;
51943;SDS011;37969;53.132;6.370;2023-06-26T11:10:30;4.40;;;2.00;;
51943;SDS011;37969;53.132;6.370;2023-06-26T11:13:13;7.07;;;1.88;;
51943;SDS011;37969;53.132;6.370;2023-06-26T11:15:42;8.82;;;1.92;;
51943;SDS011;37969;53.132;6.370;2023-06-26T11:20:35;6.18;;;1.60;;
51943;SDS011;37969;53.132;6.370;2023-06-26T11:23:01;6.95;;;1.80;;
51943;SDS011;37969;53.132;6.370;2023-06-26T11:25:36;9.73;;;1.50;;
51943;SDS011;37969;53.132;6.370;2023-06-26T11:28:03;6.72;;;1.50;;
51943;SDS011;37969;53.132;6.370;2023-06-26T11:30:29;5.47;;;1.48;;
51943;SDS011;37969;53.132;6.370;2023-06-26T11:33:05;5.50;;;1.60;;
51943;SDS011;37969;53.132;6.370;2023-06-26T11:35:32;6.05;;;1.83;;
51943;SDS011;37969;53.132;6.370;2023-06-26T11:37:59;4.97;;;1.42;;
51943;SDS011;37969;53.132;6.370;2023-06-26T11:40:29;4.78;;;1.48;;
51943;SDS011;37969;53.132;6.370;2023-06-26T11:42:58;8.57;;;1.80;;
51943;SDS011;37969;53.132;6.370;2023-06-26T11:45:25;3.95;;;1.45;;
51943;SDS011;37969;53.132;6.370;2023-06-26T11:47:54;7.13;;;1.73;;
51943;SDS011;37969;53.132;6.370;2023-06-26T11:50:21;7.80;;;1.63;;
51943;SDS011;37969;53.132;6.370;2023-06-26T11:52:52;4.32;;;1.60;;
51943;SDS011;37969;53.132;6.370;2023-06-26T11:55:20;8.40;;;2.05;;
51943;SDS011;37969;53.132;6.370;2023-06-26T11:57:49;6.38;;;1.92;;
51943;SDS011;37969;53.132;6.370;2023-06-26T12:00:16;8.82;;;2.03;;
51943;SDS011;37969;53.132;6.370;2023-06-26T12:02:43;6.20;;;2.05;;
51943;SDS011;37969;53.132;6.370;2023-06-26T12:05:10;5.30;;;2.15;;
51943;SDS011;37969;53.132;6.370;2023-06-26T12:07:36;7.80;;;2.22;;
51943;SDS011;37969;53.132;6.370;2023-06-26T12:10:03;6.15;;;2.10;;
51943;SDS011;37969;53.132;6.370;2023-06-26T12:12:30;9.57;;;1.98;;
51943;SDS011;37969;53.132;6.370;2023-06-26T12:14:56;5.18;;;1.60;;
51943;SDS011;37969;53.132;6.370;2023-06-26T12:17:24;9.80;;;1.80;;
51943;SDS011;37969;53.132;6.370;2023-06-26T12:19:50;6.07;;;2.00;;
51943;SDS011;37969;53.132;6.370;2023-06-26T12:22:16;5.10;;;1.98;;
51943;SDS011;37969;53.132;6.370;2023-06-26T12:24:43;5.80;;;1.80;;
51943;SDS011;37969;53.132;6.370;2023-06-26T12:27:10;7.40;;;1.98;;
51943;SDS011;37969;53.132;6.370;2023-06-26T12:29:37;8.45;;;2.00;;
51943;SDS011;37969;53.132;6.370;2023-06-26T12:32:07;9.55;;;2.28;;
51943;SDS011;37969;53.132;6.370;2023-06-26T12:34:35;10.43;;;2.47;;
51943;SDS011;37969;53.132;6.370;2023-06-26T12:37:04;5.25;;;1.85;;
51943;SDS011;37969;53.132;6.370;2023-06-26T12:39:44;4.90;;;1.58;;
51943;SDS011;37969;53.132;6.370;2023-06-26T12:42:13;6.45;;;1.90;;
51943;SDS011;37969;53.132;6.370;2023-06-26T12:44:39;8.75;;;1.92;;
51943;SDS011;37969;53.132;6.370;2023-06-26T12:47:05;9.32;;;2.20;;
51943;SDS011;37969;53.132;6.370;2023-06-26T12:49:34;7.55;;;2.17;;
51943;SDS011;37969;53.132;6.370;2023-06-26T12:52:02;9.88;;;2.25;;
51943;SDS011;37969;53.132;6.370;2023-06-26T12:54:29;6.43;;;1.80;;
51943;SDS011;37969;53.132;6.370;2023-06-26T12:56:55;6.70;;;1.85;;
51943;SDS011;37969;53.132;6.370;2023-06-26T12:59:21;8.50;;;1.95;;
51943;SDS011;37969;53.132;6.370;2023-06-26T13:01:47;7.35;;;2.58;;
51943;SDS011;37969;53.132;6.370;2023-06-26T13:04:14;6.75;;;2.13;;
51943;SDS011;37969;53.132;6.370;2023-06-26T13:06:40;8.00;;;2.10;;
51943;SDS011;37969;53.132;6.370;2023-06-26T13:09:06;8.68;;;2.10;;
51943;SDS011;37969;53.132;6.370;2023-06-26T13:11:33;14.35;;;2.50;;
51943;SDS011;37969;53.132;6.370;2023-06-26T13:14:01;7.32;;;2.47;;
51943;SDS011;37969;53.132;6.370;2023-06-26T13:16:27;5.38;;;2.00;;
51943;SDS011;37969;53.132;6.370;2023-06-26T13:18:53;8.45;;;2.17;;
51943;SDS011;37969;53.132;6.370;2023-06-26T13:21:21;8.52;;;2.00;;
51943;SDS011;37969;53.132;6.370;2023-06-26T13:23:47;8.48;;;2.33;;
51943;SDS011;37969;53.132;6.370;2023-06-26T13:26:13;9.30;;;2.10;;
51943;SDS011;37969;53.132;6.370;2023-06-26T13:28:40;7.82;;;2.15;;
51943;SDS011;37969;53.132;6.370;2023-06-26T13:31:06;8.23;;;1.90;;
51943;SDS011;37969;53.132;6.370;2023-06-26T13:33:32;7.35;;;2.40;;
51943;SDS011;37969;53.132;6.370;2023-06-26T13:35:59;7.57;;;1.80;;
51943;SDS011;37969;53.132;6.370;2023-06-26T13:38:25;7.68;;;1.98;;
51943;SDS011;37969;53.132;6.370;2023-06-26T13:40:52;5.43;;;1.70;;
51943;SDS011;37969;53.132;6.370;2023-06-26T13:43:18;6.18;;;1.95;;
51943;SDS011;37969;53.132;6.370;2023-06-26T13:45:44;6.50;;;2.28;;
51943;SDS011;37969;53.132;6.370;2023-06-26T13:48:10;8.13;;;2.50;;
51943;SDS011;37969;53.132;6.370;2023-06-26T13:50:36;8.73;;;2.83;;
51943;SDS011;37969;53.132;6.370;2023-06-26T13:53:03;5.97;;;2.67;;
51943;SDS011;37969;53.132;6.370;2023-06-26T13:55:29;9.77;;;3.28;;
51943;SDS011;37969;53.132;6.370;2023-06-26T13:57:56;6.07;;;2.95;;
51943;SDS011;37969;53.132;6.370;2023-06-26T14:00:24;9.55;;;2.55;;
51943;SDS011;37969;53.132;6.370;2023-06-26T14:02:50;5.72;;;1.90;;
51943;SDS011;37969;53.132;6.370;2023-06-26T14:05:17;4.55;;;2.15;;
51943;SDS011;37969;53.132;6.370;2023-06-26T14:07:44;8.05;;;1.70;;
51943;SDS011;37969;53.132;6.370;2023-06-26T14:10:11;4.85;;;1.50;;
51943;SDS011;37969;53.132;6.370;2023-06-26T14:12:37;5.18;;;1.83;;
51943;SDS011;37969;53.132;6.370;2023-06-26T14:15:04;8.60;;;1.70;;
51943;SDS011;37969;53.132;6.370;2023-06-26T14:17:30;8.43;;;3.58;;
51943;SDS011;37969;53.132;6.370;2023-06-26T14:19:56;12.45;;;3.50;;
51943;SDS011;37969;53.132;6.370;2023-06-26T14:22:22;8.43;;;2.22;;
51943;SDS011;37969;53.132;6.370;2023-06-26T14:24:49;9.63;;;2.00;;
51943;SDS011;37969;53.132;6.370;2023-06-26T14:27:15;6.97;;;2.25;;
51943;SDS011;37969;53.132;6.370;2023-06-26T14:29:41;8.52;;;2.30;;
51943;SDS011;37969;53.132;6.370;2023-06-26T14:32:07;7.40;;;1.88;;
51943;SDS011;37969;53.132;6.370;2023-06-26T14:34:33;5.95;;;1.88;;
51943;SDS011;37969;53.132;6.370;2023-06-26T14:36:59;7.53;;;1.52;;
51943;SDS011;37969;53.132;6.370;2023-06-26T14:39:26;9.38;;;2.03;;
51943;SDS011;37969;53.132;6.370;2023-06-26T14:41:52;5.10;;;1.80;;
51943;SDS011;37969;53.132;6.370;2023-06-26T14:44:18;3.70;;;1.73;;